Airfield :
LOGIN :

Register | Disclaimer

   EN    FR    IT 

 










Legend :    VFR   Marginal VFR   IFR   Intensive IFR   Very Intensive IFR
Visi :
Ceiling :
>= 8 km
>= 3000ft
5 to 8 km
1000 to 3000 ft
1500m to 5 km
500 to 1000 ft
800 to 1500m
200 to 500 ft
< 800m
< 200 ft
Symbols :   Thunderstorms  Fog  Heavy snow  Heavy precipitations  Wind > 20 kt
SIGMETs :     Misc.  Thunderstorms  Icing  Turbulence  Mountain Waves  Volcanic Ashes






- Airport Elevation : 870 ft
- IATA code : ETZ


LFJL - Metz Nancy Lorraine

CURRENT METAR :
  • 282230Z AUTO 23006KT 9999 FEW031 BKN066 BKN076 07/06 Q1014 TEMPO 2000 -DZ BR BKN003

EXPIRED METARs :
  • 282200Z AUTO 23007KT 9999 FEW009 OVC028 07/06 Q1014 TEMPO 2000 -DZ BR BKN003
  • 282130Z AUTO 23006KT 9999 FEW009 OVC025 07/07 Q1014 TEMPO 2000 -DZ BR BKN003
  • 282100Z AUTO 23007KT 8000 FEW008 BKN012 BKN017 07/07 Q1014 TEMPO 2000 -DZ BR BKN003
  • 282030Z AUTO 23008KT 4200 -RA BR BKN005 BKN010 OVC017 07/07 Q1014 TEMPO 2000 -DZ BR
  • 282000Z AUTO 23004KT 7000 -RA OVC008/// //////TCU 08/07 Q1013 TEMPO 2000 -DZ BR BKN003

TAF TAF LFJL
Valid from the 28 at 18:00 until the 29 at 18:00 UTC


281700Z 2818/2918 22006KT 9999 SCT015 BKN033
TEMPO 2818/2912 4500 -RA BKN010
PROB40
TEMPO 2818/2912 2000 -DZ BR BKN003
TEMPO 2912/2915 BKN010



MET'MAP, your aeronautical weather chart ! - Copyright ORBIFLY December 2007 - Disclaimer

ORBIFLY MET'MAP TEAM :

Programming & Development : Alexandra Zaïnal
Original concept : Baudouin d'Aumeries
Technical & hardware support : Manuel Goepfert
Assistance : Marc-Olivier Méhu




SOURCES & CREDITS :

   NOAA